createdAt,value
2018-09-16T00:00:29.070Z,66.80
2018-09-16T00:02:32.138Z,66.30
2018-09-16T00:04:35.120Z,64.70
2018-09-16T00:06:39.526Z,65.20
2018-09-16T00:08:42.579Z,64.50
2018-09-16T00:10:45.681Z,65.60
2018-09-16T00:12:48.638Z,66.30
2018-09-16T00:14:51.622Z,65.00
2018-09-16T00:16:54.609Z,66.90
2018-09-16T00:18:57.650Z,67.20
2018-09-16T00:21:00.648Z,67.40
2018-09-16T00:23:03.801Z,64.70
2018-09-16T00:25:08.584Z,65.50
2018-09-16T00:27:12.239Z,64.10
2018-09-16T00:29:15.342Z,65.00
2018-09-16T00:31:18.448Z,64.70
2018-09-16T00:33:21.471Z,64.20
2018-09-16T00:35:24.557Z,65.20
2018-09-16T00:37:27.576Z,66.50
2018-09-16T00:39:30.551Z,67.20
2018-09-16T00:41:33.569Z,67.70
2018-09-16T00:43:37.902Z,67.00
2018-09-16T00:45:40.966Z,64.90
2018-09-16T00:47:43.971Z,66.80
2018-09-16T00:49:47.221Z,65.50
2018-09-16T00:51:50.209Z,65.50
2018-09-16T00:53:53.193Z,64.40
2018-09-16T00:55:56.200Z,68.00
2018-09-16T00:57:59.163Z,65.90
2018-09-16T01:00:02.309Z,66.70
2018-09-16T01:02:05.363Z,66.20
2018-09-16T01:04:09.532Z,65.60
2018-09-16T01:06:18.265Z,65.30
2018-09-16T01:08:21.483Z,66.10
2018-09-16T01:10:24.495Z,66.70
2018-09-16T01:12:27.487Z,66.00
2018-09-16T01:14:30.534Z,65.90
2018-09-16T01:16:33.553Z,67.20
2018-09-16T01:18:37.625Z,68.40
2018-09-16T01:20:40.638Z,68.70
2018-09-16T01:22:43.640Z,67.70
2018-09-16T01:24:46.673Z,66.60
2018-09-16T01:26:49.698Z,65.90
2018-09-16T01:28:52.723Z,65.70
2018-09-16T01:30:55.709Z,66.20
2018-09-16T01:32:58.712Z,67.30
2018-09-16T01:35:01.857Z,67.60
2018-09-16T01:37:10.722Z,66.40
2018-09-16T01:39:13.782Z,69.30
2018-09-16T01:41:16.939Z,69.10
2018-09-16T01:43:20.041Z,69.60
2018-09-16T01:45:23.105Z,70.30
2018-09-16T01:47:26.548Z,69.00
2018-09-16T01:49:29.593Z,68.00
2018-09-16T01:51:32.640Z,68.30
2018-09-16T01:53:37.833Z,68.30
2018-09-16T01:55:40.887Z,67.30
2018-09-16T01:57:43.946Z,67.60
2018-09-16T01:59:47.286Z,67.20
2018-09-16T02:01:50.328Z,67.20
2018-09-16T02:03:53.373Z,68.30
2018-09-16T02:05:56.452Z,68.30
2018-09-16T02:07:59.484Z,69.50
2018-09-16T02:10:02.827Z,69.30
2018-09-16T02:12:07.861Z,70.10
2018-09-16T02:14:11.009Z,68.90
2018-09-16T02:16:14.480Z,68.90
2018-09-16T02:18:17.518Z,68.40
2018-09-16T02:20:21.842Z,68.80
2018-09-16T02:22:24.928Z,69.00
2018-09-16T02:24:28.002Z,69.30
2018-09-16T02:26:31.079Z,69.60
2018-09-16T02:28:34.397Z,69.30
2018-09-16T02:30:39.092Z,69.30
2018-09-16T02:32:42.116Z,69.60
2018-09-16T02:34:45.424Z,67.80
2018-09-16T02:36:48.513Z,69.20
2018-09-16T02:38:51.599Z,69.40
2018-09-16T02:40:54.687Z,68.90
2018-09-16T02:42:57.763Z,67.80
2018-09-16T02:45:00.851Z,68.00
2018-09-16T02:47:04.043Z,70.20
2018-09-16T02:49:08.164Z,69.70
2018-09-16T02:51:11.285Z,70.10
2018-09-16T02:53:14.316Z,70.00
2018-09-16T02:55:17.355Z,69.00
2018-09-16T02:57:20.594Z,68.70
2018-09-16T02:59:23.716Z,69.40
2018-09-16T03:01:26.812Z,70.70
2018-09-16T03:03:30.210Z,70.30
2018-09-16T03:05:38.869Z,70.50
2018-09-16T03:07:41.945Z,70.80
2018-09-16T03:09:45.066Z,69.80
2018-09-16T03:11:48.232Z,70.40
2018-09-16T03:13:51.235Z,69.40
2018-09-16T03:15:54.319Z,69.20
2018-09-16T03:17:57.346Z,71.20
2018-09-16T03:20:00.495Z,71.60
2018-09-16T03:22:03.751Z,70.00
2018-09-16T03:24:08.077Z,70.20
2018-09-16T03:26:11.169Z,69.80
2018-09-16T03:28:14.199Z,69.10
2018-09-16T03:30:17.271Z,69.50
2018-09-16T03:32:20.395Z,69.60
2018-09-16T03:34:23.358Z,69.30
2018-09-16T03:36:26.349Z,69.50
2018-09-16T03:38:29.488Z,69.10
2018-09-16T03:40:32.474Z,69.20
2018-09-16T03:42:35.441Z,70.20
2018-09-16T03:44:40.226Z,69.70
2018-09-16T03:46:43.333Z,69.60
2018-09-16T03:48:46.335Z,69.60
2018-09-16T03:50:49.582Z,69.00
2018-09-16T03:52:52.644Z,68.80
2018-09-16T03:54:55.594Z,68.80
2018-09-16T03:56:58.609Z,68.40
2018-09-16T03:59:01.723Z,68.60
2018-09-16T04:01:04.707Z,69.70
2018-09-16T04:03:09.151Z,70.10
2018-09-16T04:05:13.261Z,70.10
2018-09-16T04:07:16.360Z,70.40
2018-09-16T04:09:19.405Z,70.00
2018-09-16T04:11:22.394Z,70.30
2018-09-16T04:13:25.450Z,70.10
2018-09-16T04:15:28.448Z,70.70
2018-09-16T04:17:32.222Z,70.60
2018-09-16T04:19:35.208Z,70.80
2018-09-16T04:21:39.526Z,70.90
2018-09-16T04:23:47.481Z,70.40
2018-09-16T04:25:50.482Z,71.10
2018-09-16T04:27:53.433Z,73.20
2018-09-16T04:29:56.473Z,71.60
2018-09-16T04:31:59.484Z,70.70
2018-09-16T04:34:02.840Z,71.10
2018-09-16T04:36:05.838Z,70.30
2018-09-16T04:38:10.063Z,70.40
2018-09-16T04:40:13.116Z,71.00
2018-09-16T04:42:16.147Z,72.10
2018-09-16T04:44:19.202Z,72.20
2018-09-16T04:46:22.222Z,71.70
2018-09-16T04:48:25.235Z,71.70
2018-09-16T04:50:28.264Z,71.60
2018-09-16T04:52:31.279Z,70.10
2018-09-16T04:54:34.263Z,69.70
2018-09-16T04:56:39.235Z,70.20
2018-09-16T04:58:42.326Z,70.00
2018-09-16T05:00:45.314Z,69.90
2018-09-16T05:02:48.724Z,70.10
2018-09-16T05:04:51.762Z,69.50
2018-09-16T05:06:54.725Z,70.40
2018-09-16T05:08:57.688Z,70.30
2018-09-16T05:11:00.694Z,70.20
2018-09-16T05:13:03.775Z,70.20
2018-09-16T05:15:08.933Z,71.00
2018-09-16T05:17:11.902Z,71.00
2018-09-16T05:19:14.803Z,71.70
2018-09-16T05:21:18.047Z,70.90
2018-09-16T05:23:21.043Z,70.70
2018-09-16T05:25:24.067Z,70.70
2018-09-16T05:27:27.058Z,70.10
2018-09-16T05:29:30.029Z,71.10
2018-09-16T05:31:33.108Z,70.70
2018-09-16T05:33:37.739Z,70.80
2018-09-16T05:35:40.734Z,70.40
2018-09-16T05:37:43.770Z,70.60
2018-09-16T05:39:46.826Z,71.20
2018-09-16T05:41:49.775Z,71.50
2018-09-16T05:43:52.769Z,71.70
2018-09-16T05:45:55.844Z,71.50
2018-09-16T05:47:58.948Z,72.00
2018-09-16T05:50:02.079Z,72.30
2018-09-16T05:52:05.106Z,71.90
2018-09-16T05:54:09.836Z,73.20
2018-09-16T05:56:12.909Z,72.50
2018-09-16T05:58:15.895Z,72.90
2018-09-16T06:00:20.058Z,72.70
2018-09-16T06:02:23.118Z,72.90
2018-09-16T06:04:26.103Z,73.20
2018-09-16T06:06:29.215Z,72.90
2018-09-16T06:08:32.195Z,73.60
2018-09-16T06:10:35.190Z,74.10
2018-09-16T06:12:39.349Z,73.90
2018-09-16T06:14:42.322Z,73.80
2018-09-16T06:16:45.387Z,72.80
2018-09-16T06:18:48.442Z,75.20
2018-09-16T06:20:51.560Z,74.60
2018-09-16T06:22:54.685Z,74.80
2018-09-16T06:24:57.795Z,75.50
2018-09-16T06:27:00.867Z,75.90
2018-09-16T06:29:03.911Z,76.30
2018-09-16T06:31:08.316Z,76.00
2018-09-16T06:33:11.338Z,76.10
2018-09-16T06:35:14.535Z,76.00
2018-09-16T06:37:17.910Z,75.90
2018-09-16T06:39:21.567Z,76.10
2018-09-16T06:41:25.215Z,76.50
2018-09-16T06:43:28.262Z,75.10
2018-09-16T06:45:32.356Z,75.10
2018-09-16T06:47:35.555Z,75.00
2018-09-16T06:49:39.879Z,74.80
2018-09-16T06:51:43.942Z,74.90
2018-09-16T06:58:19.079Z,74.70
2018-09-16T07:00:22.690Z,74.00
2018-09-16T07:02:27.029Z,73.50
2018-09-16T07:04:30.941Z,73.50
2018-09-16T07:06:35.742Z,73.20
2018-09-16T07:08:39.164Z,72.50
2018-09-16T07:10:42.267Z,72.30
2018-09-16T07:12:45.408Z,71.10
2018-09-16T07:14:48.563Z,70.90
2018-09-16T07:16:51.669Z,71.50
2018-09-16T07:18:54.786Z,70.40
2018-09-16T07:20:57.940Z,69.80
2018-09-16T07:23:01.052Z,69.80
2018-09-16T07:25:04.411Z,69.10
2018-09-16T07:27:08.835Z,67.70
2018-09-16T07:29:12.060Z,67.00
2018-09-16T07:31:15.243Z,66.40
2018-09-16T07:33:18.486Z,64.70
2018-09-16T07:35:21.648Z,65.80
2018-09-16T07:37:24.855Z,63.90
2018-09-16T07:39:28.015Z,64.60
2018-09-16T07:41:31.142Z,63.30
2018-09-16T07:43:34.366Z,64.10
2018-09-16T07:45:38.902Z,63.90
2018-09-16T07:47:42.342Z,62.40
2018-09-16T07:49:45.479Z,63.00
2018-09-16T07:51:48.631Z,62.20
2018-09-16T07:53:52.173Z,62.20
2018-09-16T07:55:55.318Z,61.20
2018-09-16T07:57:58.407Z,60.30
2018-09-16T08:00:01.621Z,61.30
2018-09-16T08:02:04.685Z,60.80
2018-09-16T08:04:09.154Z,60.00
2018-09-16T08:06:12.783Z,59.60
2018-09-16T08:08:15.876Z,59.70
2018-09-16T08:10:19.011Z,58.30
2018-09-16T08:12:22.211Z,58.30
2018-09-16T08:14:25.489Z,57.60
2018-09-16T08:16:29.435Z,57.40
2018-09-16T08:18:32.898Z,57.20
2018-09-16T08:20:35.931Z,56.50
2018-09-16T08:22:40.675Z,57.00
2018-09-16T08:24:43.721Z,56.20
2018-09-16T08:26:46.751Z,54.70
2018-09-16T08:28:49.804Z,53.30
2018-09-16T08:30:52.985Z,53.30
2018-09-16T08:32:56.219Z,52.20
2018-09-16T08:34:59.418Z,53.60
2018-09-16T08:37:02.408Z,53.70
2018-09-16T08:39:09.207Z,54.10
2018-09-16T08:41:12.314Z,53.20
2018-09-16T08:43:15.366Z,52.70
2018-09-16T08:45:18.806Z,52.30
2018-09-16T08:47:21.887Z,51.80
2018-09-16T08:49:24.963Z,52.70
2018-09-16T08:51:28.175Z,51.60
2018-09-16T08:53:31.172Z,51.00
2018-09-16T08:55:34.939Z,50.20
2018-09-16T08:57:39.599Z,51.70
2018-09-16T08:59:42.824Z,51.00
2018-09-16T09:01:46.235Z,49.20
2018-09-16T09:03:49.427Z,48.80
2018-09-16T09:05:52.475Z,49.10
2018-09-16T09:07:55.552Z,49.10
2018-09-16T09:09:59.181Z,49.30
2018-09-16T09:12:02.156Z,48.90
2018-09-16T09:14:05.431Z,46.30
2018-09-16T09:16:09.870Z,47.30
2018-09-16T09:18:12.953Z,48.30
2018-09-16T09:20:16.139Z,48.10
2018-09-16T09:22:19.196Z,48.80
2018-09-16T09:24:22.464Z,46.30
2018-09-16T09:26:25.503Z,47.00
2018-09-16T09:28:28.567Z,47.70
2018-09-16T09:30:31.702Z,47.00
2018-09-16T09:32:34.787Z,47.30
2018-09-16T09:34:39.411Z,43.80
2018-09-16T09:36:42.719Z,43.50
2018-09-16T09:38:45.802Z,44.90
2018-09-16T09:40:48.883Z,45.00
2018-09-16T09:42:52.047Z,43.80
2018-09-16T09:44:55.139Z,44.50
2018-09-16T09:46:58.357Z,44.30
2018-09-16T09:49:01.721Z,44.10
2018-09-16T09:51:04.878Z,46.10
2018-09-16T09:53:09.839Z,45.50
2018-09-16T09:55:12.995Z,45.80
2018-09-16T09:57:16.061Z,44.30
2018-09-16T09:59:19.108Z,43.60
2018-09-16T10:01:22.196Z,42.30
2018-09-16T10:03:25.338Z,44.30
2018-09-16T10:05:28.535Z,43.90
2018-09-16T10:07:31.650Z,43.40
2018-09-16T10:09:34.889Z,42.50
2018-09-16T10:11:39.475Z,42.60
2018-09-16T10:13:42.535Z,42.30
2018-09-16T10:15:45.658Z,41.10
2018-09-16T10:17:48.747Z,41.70
2018-09-16T10:19:51.902Z,41.50
2018-09-16T10:21:55.100Z,42.20
2018-09-16T10:23:58.360Z,42.20
2018-09-16T10:26:01.421Z,42.40
2018-09-16T10:28:04.883Z,44.50
2018-09-16T10:30:09.832Z,43.20
2018-09-16T10:32:13.059Z,42.70
2018-09-16T10:34:16.354Z,42.90
2018-09-16T10:36:19.515Z,42.00
2018-09-16T10:38:22.783Z,41.10
2018-09-16T10:40:25.835Z,40.70
2018-09-16T10:42:28.984Z,39.80
2018-09-16T10:44:32.030Z,39.10
2018-09-16T10:46:35.108Z,39.30
2018-09-16T10:48:40.493Z,40.10
2018-09-16T10:50:43.722Z,40.20
2018-09-16T10:52:46.834Z,40.80
2018-09-16T10:54:49.867Z,40.50
2018-09-16T10:56:52.977Z,40.80
2018-09-16T10:58:56.148Z,42.20
2018-09-16T11:00:59.246Z,42.10
2018-09-16T11:03:02.387Z,41.80
2018-09-16T11:05:05.722Z,40.00
2018-09-16T11:07:09.991Z,40.00
2018-09-16T11:09:13.208Z,40.20
2018-09-16T11:11:16.438Z,41.00
2018-09-16T11:13:19.499Z,41.70
2018-09-16T11:15:22.805Z,42.00
2018-09-16T11:17:25.948Z,41.70
2018-09-16T11:19:29.951Z,40.00
2018-09-16T11:21:33.339Z,37.20
2018-09-16T11:23:37.712Z,39.40
2018-09-16T11:25:40.774Z,37.40
2018-09-16T11:27:44.265Z,38.90
2018-09-16T11:29:47.466Z,39.10
2018-09-16T11:31:50.636Z,37.40
2018-09-16T11:33:53.807Z,39.00
2018-09-16T11:35:56.960Z,38.60
2018-09-16T11:38:00.211Z,38.10
2018-09-16T11:40:03.394Z,36.60
2018-09-16T11:42:08.063Z,37.30
2018-09-16T11:44:11.148Z,37.40
2018-09-16T11:46:14.214Z,36.80
2018-09-16T11:48:17.407Z,35.80
2018-09-16T11:50:20.602Z,37.20
2018-09-16T11:52:24.971Z,37.60
2018-09-16T11:54:28.020Z,37.30
2018-09-16T11:56:31.902Z,37.00
2018-09-16T11:58:35.118Z,37.90
2018-09-16T12:00:39.955Z,36.80
2018-09-16T12:02:43.215Z,36.30
2018-09-16T12:04:46.346Z,37.50
2018-09-16T12:06:49.510Z,35.80
2018-09-16T12:08:52.648Z,35.30
2018-09-16T12:10:55.734Z,34.70
2018-09-16T12:12:59.051Z,33.10
2018-09-16T12:15:02.120Z,34.60
2018-09-16T12:17:05.189Z,34.20
2018-09-16T12:19:10.511Z,34.80
2018-09-16T12:21:13.593Z,35.50
2018-09-16T12:23:16.600Z,34.30
2018-09-16T12:25:20.071Z,35.70
2018-09-16T12:27:23.232Z,35.00
2018-09-16T12:29:26.375Z,34.40
2018-09-16T12:31:29.934Z,34.10
2018-09-16T12:33:32.987Z,31.70
2018-09-16T12:35:36.192Z,32.90
2018-09-16T12:37:40.199Z,33.30
2018-09-16T12:39:43.285Z,32.70
2018-09-16T12:41:46.427Z,33.80
2018-09-16T12:43:49.463Z,32.50
2018-09-16T12:45:52.669Z,32.80
2018-09-16T12:47:55.753Z,32.80
2018-09-16T12:49:58.980Z,30.40
2018-09-16T12:52:03.115Z,31.50
2018-09-16T12:54:06.191Z,30.00
2018-09-16T12:56:09.242Z,29.70
2018-09-16T12:58:12.432Z,30.80
2018-09-16T13:00:15.682Z,30.00
2018-09-16T13:02:18.911Z,30.00
2018-09-16T13:04:22.127Z,30.90
2018-09-16T13:06:25.156Z,31.70
2018-09-16T13:08:28.586Z,31.80
2018-09-16T13:10:31.815Z,32.20
2018-09-16T13:12:35.010Z,33.50
2018-09-16T13:14:39.706Z,32.70
2018-09-16T13:16:42.895Z,33.20
2018-09-16T13:18:46.096Z,32.10
2018-09-16T13:20:49.133Z,33.00
2018-09-16T13:22:52.369Z,34.00
2018-09-16T13:24:55.410Z,33.70
2018-09-16T13:26:58.597Z,34.10
2018-09-16T13:29:01.698Z,32.70
2018-09-16T13:31:04.793Z,32.60
2018-09-16T13:33:09.546Z,32.40
2018-09-16T13:35:12.975Z,33.90
2018-09-16T13:37:16.026Z,33.60
2018-09-16T13:39:19.199Z,34.30
2018-09-16T13:41:22.446Z,34.30
2018-09-16T13:43:25.706Z,34.80
2018-09-16T13:45:28.822Z,34.20
2018-09-16T13:47:31.961Z,33.30
2018-09-16T13:49:35.037Z,32.90
2018-09-16T13:51:39.883Z,32.50
2018-09-16T13:53:42.976Z,31.20
2018-09-16T13:55:46.035Z,30.90
2018-09-16T13:57:49.016Z,32.00
2018-09-16T13:59:52.008Z,30.70
2018-09-16T14:01:55.125Z,30.70
2018-09-16T14:03:58.139Z,32.20
2018-09-16T14:06:01.072Z,32.00
2018-09-16T14:08:04.014Z,31.60
2018-09-16T14:10:08.615Z,31.40
2018-09-16T14:12:11.782Z,32.10
2018-09-16T14:14:14.865Z,33.60
2018-09-16T14:16:17.930Z,33.50
2018-09-16T14:18:21.018Z,32.90
2018-09-16T14:20:24.374Z,31.70
2018-09-16T14:22:27.557Z,32.50
2018-09-16T14:24:30.494Z,32.50
2018-09-16T14:26:33.494Z,31.90
2018-09-16T14:28:38.446Z,32.50
2018-09-16T14:30:41.471Z,32.20
2018-09-16T14:32:44.686Z,32.70
2018-09-16T14:34:47.719Z,31.70
2018-09-16T14:36:50.809Z,31.70
2018-09-16T14:38:54.284Z,32.60
2018-09-16T14:40:57.286Z,34.70
2018-09-16T14:43:00.293Z,33.80
2018-09-16T14:45:03.424Z,33.40
2018-09-16T14:47:08.451Z,32.20
2018-09-16T14:49:11.408Z,34.30
2018-09-16T14:51:14.457Z,34.70
2018-09-16T14:53:17.450Z,34.20
2018-09-16T14:55:20.393Z,33.10
2018-09-16T14:57:23.427Z,33.60
2018-09-16T14:59:26.768Z,33.70
2018-09-16T15:01:29.757Z,33.30
2018-09-16T15:03:32.920Z,32.10
2018-09-16T15:05:35.910Z,31.90
2018-09-16T15:07:40.226Z,32.90
2018-09-16T15:09:43.475Z,32.80
2018-09-16T15:11:46.627Z,33.60
2018-09-16T15:13:49.592Z,34.20
2018-09-16T15:15:52.742Z,33.20
2018-09-16T15:17:55.776Z,33.30
2018-09-16T15:19:58.768Z,33.00
2018-09-16T15:22:01.764Z,31.60
2018-09-16T15:24:04.844Z,31.20
2018-09-16T15:26:08.520Z,30.70
2018-09-16T15:28:11.603Z,31.30
2018-09-16T15:30:14.708Z,31.70
2018-09-16T15:32:17.767Z,31.10
2018-09-16T15:34:20.899Z,31.90
2018-09-16T15:36:23.927Z,33.40
2018-09-16T15:38:26.937Z,34.40
2018-09-16T15:40:29.991Z,34.00
2018-09-16T15:42:33.014Z,33.90
2018-09-16T15:44:35.975Z,33.80
2018-09-16T15:46:41.004Z,33.70
2018-09-16T15:48:44.342Z,34.00
2018-09-16T15:50:47.395Z,36.60
2018-09-16T15:52:50.398Z,35.20
2018-09-16T15:54:53.701Z,35.30
2018-09-16T15:56:56.756Z,36.00
2018-09-16T15:58:59.862Z,34.90
2018-09-16T16:01:03.262Z,35.70
2018-09-16T16:03:06.754Z,35.90
2018-09-16T16:05:09.846Z,36.00
2018-09-16T16:07:12.894Z,36.00
2018-09-16T16:09:15.911Z,37.10
2018-09-16T16:11:18.972Z,36.30
2018-09-16T16:13:22.032Z,36.10
2018-09-16T16:15:25.035Z,36.30
2018-09-16T16:17:28.067Z,36.00
2018-09-16T16:19:31.258Z,35.80
2018-09-16T16:21:34.387Z,34.40
2018-09-16T16:23:38.867Z,35.30
2018-09-16T16:25:41.922Z,35.90
2018-09-16T16:27:45.096Z,36.60
2018-09-16T16:29:48.194Z,37.20
2018-09-16T16:31:51.678Z,36.90
2018-09-16T16:33:54.745Z,37.60
2018-09-16T16:35:57.911Z,37.30
2018-09-16T16:38:01.088Z,37.70
2018-09-16T16:40:04.131Z,37.20
2018-09-16T16:42:09.064Z,37.30
2018-09-16T16:44:12.194Z,37.40
2018-09-16T16:46:15.248Z,37.20
2018-09-16T16:48:18.311Z,37.70
2018-09-16T16:50:21.439Z,37.70
2018-09-16T16:52:24.544Z,37.70
2018-09-16T16:54:27.675Z,37.80
2018-09-16T16:56:30.686Z,38.00
2018-09-16T16:58:33.783Z,38.10
2018-09-16T17:00:38.292Z,38.10
2018-09-16T17:02:41.412Z,38.00
2018-09-16T17:04:44.578Z,38.50
2018-09-16T17:06:47.798Z,38.40
2018-09-16T17:08:50.906Z,38.60
2018-09-16T17:10:54.049Z,38.50
2018-09-16T17:12:57.248Z,38.60
2018-09-16T17:15:00.477Z,38.70
2018-09-16T17:17:03.614Z,39.00
2018-09-16T17:19:08.741Z,39.30
2018-09-16T17:21:11.990Z,39.40
2018-09-16T17:23:15.378Z,39.60
2018-09-16T17:25:18.613Z,39.80
2018-09-16T17:27:21.828Z,40.00
2018-09-16T17:29:24.891Z,40.20
2018-09-16T17:31:28.358Z,40.60
2018-09-16T17:33:31.582Z,40.30
2018-09-16T17:35:34.766Z,40.30
2018-09-16T17:37:39.074Z,40.70
2018-09-16T17:39:42.391Z,40.60
2018-09-16T17:41:46.079Z,41.40
2018-09-16T17:43:49.086Z,41.70
2018-09-16T17:45:52.581Z,41.70
2018-09-16T17:47:55.714Z,41.90
2018-09-16T17:49:58.901Z,42.10
2018-09-16T17:52:02.007Z,42.50
2018-09-16T17:54:05.062Z,42.30
2018-09-16T17:56:08.629Z,42.90
2018-09-16T17:58:11.651Z,43.00
2018-09-16T18:00:14.759Z,42.50
2018-09-16T18:02:17.961Z,42.90
2018-09-16T18:04:21.215Z,43.30
2018-09-16T18:06:24.303Z,43.70
2018-09-16T18:08:33.797Z,44.20
2018-09-16T18:10:38.279Z,43.30
2018-09-16T18:12:41.396Z,44.40
2018-09-16T18:14:44.487Z,44.50
2018-09-16T18:16:47.728Z,44.80
2018-09-16T18:18:50.702Z,44.80
2018-09-16T18:20:53.887Z,45.30
2018-09-16T18:22:56.979Z,44.90
2018-09-16T18:25:00.086Z,44.60
2018-09-16T18:27:03.155Z,44.90
2018-09-16T18:29:08.494Z,45.60
2018-09-16T18:31:13.738Z,45.00
2018-09-16T18:33:16.974Z,45.30
2018-09-16T18:35:20.123Z,45.70
2018-09-16T18:37:23.331Z,46.00
2018-09-16T18:39:26.729Z,46.00
2018-09-16T18:41:29.816Z,46.20
2018-09-16T18:43:32.953Z,47.20
2018-09-16T18:45:36.088Z,47.00
2018-09-16T18:47:40.625Z,47.60
2018-09-16T18:49:43.746Z,46.80
2018-09-16T18:51:47.324Z,46.80
2018-09-16T18:53:50.808Z,47.00
2018-09-16T18:55:53.847Z,47.00
2018-09-16T18:57:57.070Z,47.40
2018-09-16T19:00:01.065Z,47.20
2018-09-16T19:02:04.230Z,47.70
2018-09-16T19:04:09.647Z,48.10
2018-09-16T19:06:12.743Z,48.60
2018-09-16T19:08:15.881Z,49.20
2018-09-16T19:10:19.246Z,49.90
2018-09-16T19:12:22.459Z,49.50
2018-09-16T19:14:25.740Z,49.10
2018-09-16T19:16:28.755Z,49.90
2018-09-16T19:18:31.758Z,49.70
2018-09-16T19:20:34.751Z,49.40
2018-09-16T19:22:38.995Z,49.20
2018-09-16T19:24:42.056Z,49.40
2018-09-16T19:26:45.226Z,49.60
2018-09-16T19:28:48.787Z,49.80
2018-09-16T19:30:51.715Z,49.80
2018-09-16T19:32:54.746Z,49.70
2018-09-16T19:34:57.834Z,50.40
2018-09-16T19:37:00.850Z,50.60
2018-09-16T19:39:08.338Z,50.30
2018-09-16T19:41:11.339Z,50.70
2018-09-16T19:43:14.425Z,51.70
2018-09-16T19:45:17.820Z,51.20
2018-09-16T19:47:21.337Z,50.60
2018-09-16T19:49:24.749Z,51.70
2018-09-16T19:51:28.166Z,51.80
2018-09-16T19:53:31.292Z,52.00
2018-09-16T19:55:35.063Z,51.40
2018-09-16T19:57:39.526Z,51.40
2018-09-16T19:59:42.619Z,51.50
2018-09-16T20:01:45.979Z,51.20
2018-09-16T20:03:49.036Z,51.40
2018-09-16T20:05:52.091Z,52.30
2018-09-16T20:07:55.282Z,52.50
2018-09-16T20:09:58.515Z,52.60
2018-09-16T20:12:01.673Z,53.40
2018-09-16T20:14:05.139Z,53.50
2018-09-16T20:16:10.176Z,53.40
2018-09-16T20:18:13.237Z,53.50
2018-09-16T20:20:16.546Z,54.00
2018-09-16T20:22:19.659Z,54.00
2018-09-16T20:24:22.929Z,54.10
2018-09-16T20:26:26.701Z,54.10
2018-09-16T20:28:29.877Z,53.70
2018-09-16T20:30:32.923Z,54.70
2018-09-16T20:32:37.629Z,55.30
2018-09-16T20:34:41.436Z,54.80
2018-09-16T20:36:45.266Z,54.50
2018-09-16T20:38:48.303Z,53.90
2018-09-16T20:40:51.337Z,55.40
2018-09-16T20:42:54.426Z,54.80
2018-09-16T20:44:57.560Z,54.50
2018-09-16T20:47:00.598Z,55.70
2018-09-16T20:49:04.030Z,55.20
2018-09-16T20:51:09.020Z,55.20
2018-09-16T20:53:11.974Z,56.10
2018-09-16T20:55:15.026Z,56.00
2018-09-16T20:57:18.010Z,57.80
2018-09-16T20:59:21.030Z,57.50
2018-09-16T21:01:24.518Z,57.40
2018-09-16T21:03:27.580Z,57.60
2018-09-16T21:05:30.551Z,58.60
2018-09-16T21:07:33.622Z,59.00
2018-09-16T21:09:38.102Z,59.00
2018-09-16T21:11:41.590Z,57.80
2018-09-16T21:13:45.212Z,57.50
2018-09-16T21:15:48.322Z,57.50
2018-09-16T21:17:51.315Z,58.30
2018-09-16T21:19:54.469Z,58.90
2018-09-16T21:21:57.473Z,58.10
2018-09-16T21:24:00.704Z,59.30
2018-09-16T21:26:03.817Z,58.90
2018-09-16T21:28:08.319Z,58.80
2018-09-16T21:30:11.267Z,57.90
2018-09-16T21:32:14.323Z,58.10
2018-09-16T21:34:17.265Z,57.80
2018-09-16T21:36:20.311Z,58.00
2018-09-16T21:38:23.272Z,57.20
2018-09-16T21:40:26.306Z,57.60
2018-09-16T21:42:29.259Z,57.50
2018-09-16T21:44:32.238Z,57.90
2018-09-16T21:46:35.248Z,56.90
2018-09-16T21:48:39.988Z,57.20
2018-09-16T21:50:42.980Z,58.20
2018-09-16T21:52:46.659Z,58.10
2018-09-16T21:54:49.691Z,58.50
2018-09-16T21:56:52.968Z,58.50
2018-09-16T21:58:55.930Z,57.90
2018-09-16T22:00:58.966Z,58.30
2018-09-16T22:03:02.303Z,57.90
2018-09-16T22:05:05.455Z,58.50
2018-09-16T22:07:09.634Z,58.00
2018-09-16T22:09:12.639Z,58.00
2018-09-16T22:11:15.612Z,58.20
2018-09-16T22:13:18.708Z,58.50
2018-09-16T22:15:21.854Z,59.50
2018-09-16T22:17:24.830Z,59.70
2018-09-16T22:19:27.828Z,58.60
2018-09-16T22:21:30.904Z,58.80
2018-09-16T22:23:33.875Z,59.90
2018-09-16T22:25:38.458Z,58.80
2018-09-16T22:27:41.888Z,59.10
2018-09-16T22:29:44.879Z,59.10
2018-09-16T22:31:47.847Z,59.30
2018-09-16T22:33:50.867Z,59.10
2018-09-16T22:35:53.845Z,60.20
2018-09-16T22:37:56.974Z,59.20
2018-09-16T22:40:00.110Z,59.80
2018-09-16T22:42:03.181Z,60.20
2018-09-16T22:44:06.228Z,60.00
2018-09-16T22:46:10.555Z,60.40
2018-09-16T22:48:13.641Z,59.90
2018-09-16T22:50:16.787Z,59.40
2018-09-16T22:52:19.815Z,60.00
2018-09-16T22:54:23.015Z,60.20
2018-09-16T22:56:26.087Z,60.80
2018-09-16T22:58:29.143Z,60.60
2018-09-16T23:00:32.285Z,59.60
2018-09-16T23:02:35.832Z,59.70
2018-09-16T23:04:40.607Z,59.60
2018-09-16T23:06:43.707Z,59.70
2018-09-16T23:08:52.382Z,60.70
2018-09-16T23:10:55.450Z,59.40
2018-09-16T23:12:58.510Z,59.60
2018-09-16T23:15:01.707Z,60.10
2018-09-16T23:17:04.895Z,59.60
2018-09-16T23:19:09.895Z,60.10
2018-09-16T23:21:12.996Z,60.10
2018-09-16T23:23:16.093Z,60.60
2018-09-16T23:25:19.123Z,60.00
2018-09-16T23:27:22.602Z,60.40
2018-09-16T23:29:25.637Z,60.70
2018-09-16T23:31:28.709Z,61.20
2018-09-16T23:33:31.811Z,61.70
2018-09-16T23:35:34.856Z,61.10
2018-09-16T23:37:39.501Z,61.50
2018-09-16T23:39:42.649Z,61.10
2018-09-16T23:41:45.728Z,61.40
2018-09-16T23:43:48.723Z,60.80
2018-09-16T23:45:51.832Z,62.40
2018-09-16T23:47:54.807Z,61.60
2018-09-16T23:49:57.777Z,62.00
2018-09-16T23:52:00.830Z,62.10
2018-09-16T23:54:03.942Z,61.50
2018-09-16T23:56:08.424Z,62.40
2018-09-16T23:58:11.505Z,62.60
